Time;durP1;ratioP1;P1;durP2;ratioP2;P2;SDS_P1;SDS_P2;PMS_P1;PMS_P2;Temp;Humidity;BMP_temperature;BMP_pressure;BME280_temperature;BME280_humidity;BME280_pressure;Samples;Min_cycle;Max_cycle;Signal;HPM_P1;HPM_P2
2022/12/05 00:00:13;;;;;;;16.85;14.82;;;13.10;56.90;;;;;;5053611;28;20214;-69
2022/12/05 00:02:38;;;;;;;16.90;15.10;;;13.10;56.60;;;;;;5053195;28;20693;-68
2022/12/05 00:05:04;;;;;;;15.75;14.07;;;13.10;56.70;;;;;;5053154;28;20265;-69
2022/12/05 00:07:30;;;;;;;16.50;14.80;;;13.10;56.80;;;;;;5053758;28;20185;-69
2022/12/05 00:09:55;;;;;;;16.38;14.73;;;13.10;56.90;;;;;;5053722;28;20227;-69
2022/12/05 00:12:21;;;;;;;16.85;14.40;;;13.20;57.00;;;;;;5052689;28;20257;-69
2022/12/05 00:14:46;;;;;;;15.57;13.98;;;13.10;57.00;;;;;;5053097;28;20195;-69
2022/12/05 00:17:12;;;;;;;18.05;14.50;;;13.20;57.00;;;;;;5052723;28;20179;-69
2022/12/05 00:19:38;;;;;;;16.35;14.57;;;13.10;56.90;;;;;;5053016;28;20222;-68
2022/12/05 00:22:03;;;;;;;16.25;13.95;;;13.10;57.00;;;;;;5053262;28;20202;-68
2022/12/05 00:24:29;;;;;;;16.08;14.40;;;13.10;56.90;;;;;;5052639;28;20626;-69
2022/12/05 00:26:54;;;;;;;17.40;14.57;;;13.10;57.20;;;;;;5052926;28;20552;-70
2022/12/05 00:29:20;;;;;;;16.50;14.32;;;13.10;57.20;;;;;;5053341;28;20175;-70
2022/12/05 00:31:45;;;;;;;16.00;14.30;;;13.10;56.90;;;;;;5052210;28;20265;-68
2022/12/05 00:34:11;;;;;;;17.25;15.40;;;13.10;56.60;;;;;;5052875;28;20269;-68
2022/12/05 00:36:37;;;;;;;16.10;14.40;;;13.20;56.60;;;;;;5053009;28;20186;-69
2022/12/05 00:39:07;;;;;;;16.10;14.30;;;13.20;56.40;;;;;;5052294;28;20626;-69
2022/12/05 00:41:33;;;;;;;16.92;15.15;;;13.30;56.40;;;;;;5052886;28;20285;-69
2022/12/05 00:43:59;;;;;;;15.35;13.75;;;13.30;56.40;;;;;;5052911;28;20199;-70
2022/12/05 00:46:26;;;;;;;15.85;14.15;;;13.40;56.50;;;;;;5052173;28;20175;-70
2022/12/05 00:48:52;;;;;;;15.15;13.55;;;13.50;56.50;;;;;;5052852;28;20190;-70
2022/12/05 00:51:41;;;;;;;15.77;13.70;;;13.50;56.40;;;;;;5053074;28;20289;-70
2022/12/05 00:54:09;;;;;;;14.80;13.30;;;13.60;56.40;;;;;;5051853;28;20187;-69
2022/12/05 00:56:34;;;;;;;15.27;13.68;;;13.60;56.40;;;;;;5052589;28;20266;-69
2022/12/05 00:59:00;;;;;;;16.08;14.40;;;13.60;56.40;;;;;;5052815;28;20648;-69
2022/12/05 01:01:45;;;;;;;15.25;13.65;;;13.60;56.40;;;;;;5052163;28;20646;-69
2022/12/05 01:04:19;;;;;;;15.55;13.90;;;13.60;56.50;;;;;;5053053;28;20207;-70
2022/12/05 01:06:44;;;;;;;15.73;14.02;;;13.50;56.50;;;;;;5051846;28;20182;-69
2022/12/05 01:09:12;;;;;;;16.13;14.43;;;13.50;56.60;;;;;;5052587;28;20182;-70
2022/12/05 01:11:38;;;;;;;14.32;12.82;;;13.50;56.60;;;;;;5052412;28;20183;-69
2022/12/05 01:14:03;;;;;;;15.25;13.65;;;13.50;56.60;;;;;;5052106;28;20175;-68
2022/12/05 01:16:33;;;;;;;15.30;13.63;;;13.50;56.70;;;;;;5052498;28;20215;-68
2022/12/05 01:19:00;;;;;;;14.90;13.40;;;13.50;56.70;;;;;;5052609;28;20223;-68
2022/12/05 01:21:26;;;;;;;15.88;14.18;;;13.60;56.70;;;;;;5051955;28;20210;-70
2022/12/05 01:23:51;;;;;;;15.25;13.65;;;13.60;56.60;;;;;;5052228;28;20267;-70
2022/12/05 01:26:18;;;;;;;14.23;12.73;;;13.60;56.60;;;;;;5052696;28;20175;-70
2022/12/05 01:28:44;;;;;;;15.30;13.77;;;13.60;56.60;;;;;;5051869;28;20199;-70
2022/12/05 01:31:21;;;;;;;15.60;13.65;;;13.60;56.60;;;;;;5052732;28;20182;-69
2022/12/05 01:33:47;;;;;;;16.08;14.30;;;13.60;56.70;;;;;;5052314;28;20253;-68
2022/12/05 01:36:13;;;;;;;14.32;12.82;;;13.50;56.60;;;;;;5051844;28;20697;-69
2022/12/05 01:38:39;;;;;;;15.63;13.85;;;13.50;56.70;;;;;;5052219;28;20649;-69
2022/12/05 01:41:05;;;;;;;15.32;13.73;;;13.50;56.70;;;;;;5052650;28;20214;-69
2022/12/05 01:43:30;;;;;;;14.60;13.02;;;13.50;56.80;;;;;;5051674;28;20179;-69
2022/12/05 01:45:56;;;;;;;15.25;13.65;;;13.60;56.90;;;;;;5052430;28;20164;-70
2022/12/05 01:48:27;;;;;;;14.60;13.00;;;13.60;56.80;;;;;;5052377;28;20236;-69
2022/12/05 01:50:52;;;;;;;14.88;12.98;;;13.60;56.80;;;;;;5051453;28;20236;-69
2022/12/05 01:53:18;;;;;;;15.05;13.05;;;13.60;56.80;;;;;;5051115;28;20171;-70
2022/12/05 01:55:44;;;;;;;15.25;13.60;;;13.60;56.70;;;;;;5051390;28;20666;-69
2022/12/05 01:58:10;;;;;;;14.93;13.40;;;13.60;56.70;;;;;;5054450;28;20644;-69
2022/12/05 02:00:35;;;;;;;14.80;13.20;;;13.50;56.80;;;;;;5055690;28;20258;-69
2022/12/05 02:03:07;;;;;;;17.17;14.02;;;13.50;56.80;;;;;;5053939;28;20203;-69
2022/12/05 02:05:34;;;;;;;14.82;13.32;;;13.50;56.90;;;;;;5054465;28;20190;-69
2022/12/05 02:08:05;;;;;;;15.75;14.05;;;13.50;56.80;;;;;;5056106;28;20176;-68
2022/12/05 02:10:43;;;;;;;14.70;13.13;;;13.50;56.90;;;;;;5055204;28;20179;-69
2022/12/05 02:13:46;;;;;;;14.52;13.02;;;13.50;56.90;;;;;;5054867;28;20541;-69
2022/12/05 02:16:19;;;;;;;15.13;13.52;;;13.50;56.90;;;;;;5053581;28;20211;-68
2022/12/05 02:18:51;;;;;;;14.30;12.88;;;13.50;56.90;;;;;;5053489;28;20237;-68
2022/12/05 02:21:32;;;;;;;13.88;12.45;;;13.50;56.80;;;;;;5055715;28;20175;-69
2022/12/05 02:24:18;;;;;;;14.07;12.57;;;13.60;56.90;;;;;;5055062;28;20178;-69
2022/12/05 02:27:01;;;;;;;16.75;14.32;;;13.60;56.90;;;;;;5054243;28;20179;-70
2022/12/05 02:29:55;;;;;;;14.98;13.25;;;13.50;56.90;;;;;;5055658;28;20206;-70
2022/12/05 02:32:49;;;;;;;14.73;13.05;;;13.50;57.10;;;;;;5053661;28;20190;-69
2022/12/05 02:35:36;;;;;;;15.45;12.60;;;13.50;57.10;;;;;;5055941;28;20218;-69
2022/12/05 02:38:04;;;;;;;13.77;12.38;;;13.40;57.30;;;;;;5053748;28;20582;-68
2022/12/05 02:40:40;;;;;;;13.82;12.43;;;13.50;57.10;;;;;;5055428;28;20179;-69
2022/12/05 02:43:21;;;;;;;14.23;12.73;;;13.50;57.10;;;;;;5055527;28;20179;-69
2022/12/05 02:45:48;;;;;;;14.18;12.70;;;13.60;57.10;;;;;;5054206;28;20580;-69
2022/12/05 02:48:13;;;;;;;13.85;12.38;;;13.60;57.00;;;;;;5054166;28;20536;-69
2022/12/05 02:50:39;;;;;;;13.10;11.80;;;13.50;57.00;;;;;;5053761;28;20630;-70
2022/12/05 02:53:09;;;;;;;14.25;12.52;;;13.50;56.90;;;;;;5053118;28;20171;-69
2022/12/05 02:55:35;;;;;;;14.27;12.77;;;13.50;57.00;;;;;;5053756;28;20215;-69
2022/12/05 02:58:03;;;;;;;14.70;13.20;;;13.50;57.10;;;;;;5053744;28;20245;-68
2022/12/05 03:00:28;;;;;;;14.70;12.75;;;13.40;57.30;;;;;;5053501;28;20186;-69
2022/12/05 03:02:57;;;;;;;15.27;13.68;;;13.40;57.20;;;;;;5054783;28;20179;-68
2022/12/05 03:05:28;;;;;;;15.57;13.98;;;13.40;57.20;;;;;;5053632;28;20191;-68
2022/12/05 03:07:53;;;;;;;13.95;12.40;;;13.40;57.40;;;;;;5052521;28;20249;-69
2022/12/05 03:10:22;;;;;;;14.10;12.57;;;13.40;57.30;;;;;;5053484;28;20622;-70
2022/12/05 03:12:50;;;;;;;13.60;12.15;;;13.40;57.20;;;;;;5053345;28;20622;-69
2022/12/05 03:15:25;;;;;;;13.82;12.35;;;13.50;57.20;;;;;;5054073;28;20272;-68
2022/12/05 03:18:22;;;;;;;13.63;12.23;;;13.50;57.10;;;;;;5054340;28;20174;-68
2022/12/05 03:20:51;;;;;;;13.70;12.30;;;13.50;57.10;;;;;;5052886;28;20217;-68
2022/12/05 03:23:22;;;;;;;13.85;12.30;;;13.50;57.20;;;;;;5054052;28;20203;-69
2022/12/05 03:25:58;;;;;;;14.82;13.23;;;13.50;57.20;;;;;;5053188;28;20178;-70
2022/12/05 03:28:30;;;;;;;14.15;12.65;;;13.40;57.30;;;;;;5053266;28;20178;-70
2022/12/05 03:30:56;;;;;;;13.93;12.40;;;13.40;57.40;;;;;;5054229;28;20183;-69
2022/12/05 03:33:28;;;;;;;13.55;12.00;;;13.40;57.40;;;;;;5053375;28;20171;-69
2022/12/05 03:36:03;;;;;;;13.40;12.00;;;13.40;57.70;;;;;;5052337;28;20238;-68
2022/12/05 03:39:06;;;;;;;14.30;12.25;;;13.40;57.50;;;;;;5054078;28;20526;-69
2022/12/05 03:41:50;;;;;;;13.40;12.00;;;13.40;57.30;;;;;;5053102;28;20604;-70
2022/12/05 03:44:36;;;;;;;13.45;12.05;;;13.50;57.30;;;;;;5054225;28;20181;-70
2022/12/05 03:47:09;;;;;;;13.07;11.55;;;13.50;57.90;;;;;;5053667;28;20186;-70
2022/12/05 03:49:38;;;;;;;12.57;11.30;;;13.50;57.20;;;;;;5051872;28;20190;-71
2022/12/05 03:52:19;;;;;;;14.35;12.85;;;13.40;57.40;;;;;;5052840;28;20172;-70
2022/12/05 03:55:04;;;;;;;13.73;12.15;;;13.40;57.50;;;;;;5052568;28;20213;-70
2022/12/05 03:57:32;;;;;;;12.40;11.20;;;13.40;57.60;;;;;;5052038;28;20175;-69
2022/12/05 04:00:08;;;;;;;12.98;11.65;;;13.30;57.50;;;;;;5052582;28;20550;-68
2022/12/05 04:02:44;;;;;;;13.02;11.63;;;13.40;57.60;;;;;;5052705;28;20580;-69
2022/12/05 04:05:32;;;;;;;12.45;11.05;;;13.30;57.60;;;;;;5053107;28;20198;-69
2022/12/05 04:08:00;;;;;;;12.65;11.35;;;13.40;57.60;;;;;;5053242;28;20187;-69
2022/12/05 04:10:28;;;;;;;12.75;11.45;;;13.40;57.50;;;;;;5051715;28;20175;-69
2022/12/05 04:12:55;;;;;;;12.57;11.23;;;13.50;57.50;;;;;;5052528;28;20199;-69
2022/12/05 04:15:24;;;;;;;13.02;11.73;;;13.50;57.40;;;;;;5052653;28;20221;-69
2022/12/05 04:17:56;;;;;;;12.75;11.55;;;13.50;57.60;;;;;;5051516;28;20262;-68
2022/12/05 04:23:07;;;;;;;14.52;12.80;;;13.40;57.60;;;;;;5052392;28;20221;-68
2022/12/05 04:25:36;;;;;;;14.05;12.55;;;13.30;57.50;;;;;;5051416;28;20183;-70
2022/12/05 04:28:24;;;;;;;12.32;11.05;;;13.40;57.70;;;;;;5052244;28;20195;-69
2022/12/05 04:30:54;;;;;;;13.50;11.88;;;13.30;57.70;;;;;;5052334;28;20186;-68
2022/12/05 04:33:36;;;;;;;12.82;11.48;;;13.30;57.80;;;;;;5051915;28;20175;-69
2022/12/05 04:36:22;;;;;;;13.57;12.27;;;13.30;58.40;;;;;;5053298;28;20221;-68
2022/12/05 04:38:52;;;;;;;12.82;11.52;;;13.40;57.60;;;;;;5051065;28;20175;-68
2022/12/05 04:41:21;;;;;;;12.05;10.88;;;13.40;57.50;;;;;;5052086;28;20174;-69
2022/12/05 04:43:47;;;;;;;12.88;11.35;;;13.50;57.50;;;;;;5051857;28;20179;-69
2022/12/05 04:46:13;;;;;;;13.57;12.13;;;13.50;57.60;;;;;;5051429;28;20198;-70
2022/12/05 04:48:39;;;;;;;13.45;11.88;;;13.40;57.60;;;;;;5051808;28;20175;-70
2022/12/05 04:51:08;;;;;;;13.07;11.77;;;13.40;57.70;;;;;;5052123;28;20175;-69
2022/12/05 04:53:34;;;;;;;12.55;10.85;;;13.30;57.70;;;;;;5050615;28;20175;-70
2022/12/05 04:55:59;;;;;;;13.38;11.98;;;13.30;57.70;;;;;;5051688;28;20209;-69
2022/12/05 04:58:25;;;;;;;12.98;11.68;;;13.30;57.70;;;;;;5051309;28;20167;-69
2022/12/05 05:01:06;;;;;;;11.90;10.68;;;13.30;57.80;;;;;;5051250;28;20768;-69
2022/12/05 05:03:44;;;;;;;11.90;10.77;;;13.30;57.80;;;;;;5051687;28;20183;-69
2022/12/05 05:06:10;;;;;;;14.15;12.43;;;13.30;57.70;;;;;;5051956;28;20645;-69
2022/12/05 05:08:36;;;;;;;12.02;10.85;;;13.40;57.90;;;;;;5051281;28;20179;-70
2022/12/05 05:11:15;;;;;;;12.45;11.23;;;13.40;57.70;;;;;;5052763;28;20171;-68
2022/12/05 05:13:40;;;;;;;13.07;11.68;;;13.40;57.60;;;;;;5052031;28;20595;-69
2022/12/05 05:16:06;;;;;;;11.05;9.95;;;13.40;57.90;;;;;;5052607;28;20242;-68
2022/12/05 05:18:32;;;;;;;12.15;10.95;;;13.40;57.90;;;;;;5052298;28;20257;-68
2022/12/05 05:20:57;;;;;;;12.40;11.10;;;13.40;57.90;;;;;;5052064;28;20557;-68
2022/12/05 05:23:23;;;;;;;12.57;11.32;;;13.30;57.80;;;;;;5052491;28;20262;-68
2022/12/05 05:25:52;;;;;;;12.02;10.73;;;13.30;57.90;;;;;;5052556;28;20189;-68
2022/12/05 05:28:18;;;;;;;12.88;11.40;;;13.30;57.90;;;;;;5052055;28;20215;-69
2022/12/05 05:30:43;;;;;;;11.95;10.75;;;13.30;57.90;;;;;;5052425;28;20606;-68
2022/12/05 05:33:09;;;;;;;11.73;10.50;;;13.30;57.90;;;;;;5056093;28;20626;-68
2022/12/05 05:35:35;;;;;;;11.05;9.93;;;13.40;57.80;;;;;;5055460;28;20301;-67
2022/12/05 05:38:01;;;;;;;11.25;10.05;;;13.40;57.70;;;;;;5056445;28;20220;-68
2022/12/05 05:40:26;;;;;;;12.13;10.55;;;13.40;57.70;;;;;;5056623;28;20262;-68
2022/12/05 05:42:52;;;;;;;11.70;10.50;;;13.40;57.70;;;;;;5055514;28;20258;-69
2022/12/05 05:45:17;;;;;;;12.32;11.10;;;13.40;57.70;;;;;;5056297;28;20175;-69
2022/12/05 05:47:43;;;;;;;11.07;9.95;;;13.40;57.70;;;;;;5055308;28;20185;-69
2022/12/05 05:50:09;;;;;;;11.70;10.50;;;13.40;57.90;;;;;;5056183;28;20252;-70
2022/12/05 05:52:35;;;;;;;11.88;10.68;;;13.40;57.90;;;;;;5055787;28;20433;-69
2022/12/05 05:55:01;;;;;;;11.20;10.10;;;13.30;57.90;;;;;;5055536;28;20892;-69
2022/12/05 05:57:27;;;;;;;12.23;10.93;;;13.30;58.00;;;;;;5056339;28;20175;-69
2022/12/05 05:59:52;;;;;;;10.90;9.85;;;13.30;57.90;;;;;;5055947;28;20178;-69
2022/12/05 06:02:18;;;;;;;11.07;9.88;;;13.30;58.00;;;;;;5055463;28;20179;-69
2022/12/05 06:04:43;;;;;;;10.20;9.20;;;13.40;57.90;;;;;;5055889;28;20178;-69
2022/12/05 06:07:09;;;;;;;10.63;9.63;;;13.40;57.80;;;;;;5055967;28;20229;-69
2022/12/05 06:09:34;;;;;;;10.75;9.45;;;13.40;57.70;;;;;;5055204;28;20175;-69
2022/12/05 06:12:00;;;;;;;11.20;9.93;;;13.40;57.70;;;;;;5056026;28;20557;-69
2022/12/05 06:14:25;;;;;;;11.38;10.25;;;13.40;57.90;;;;;;5055711;28;20574;-69
2022/12/05 06:16:51;;;;;;;11.50;10.40;;;13.40;57.90;;;;;;5054855;28;20641;-68
2022/12/05 06:19:16;;;;;;;10.07;9.07;;;13.40;57.90;;;;;;5055750;28;20250;-68
2022/12/05 06:21:42;;;;;;;11.20;10.15;;;13.40;57.90;;;;;;5055281;28;20536;-68
2022/12/05 06:24:08;;;;;;;11.20;10.05;;;13.30;57.90;;;;;;5055000;28;20171;-68
2022/12/05 06:26:33;;;;;;;11.32;10.23;;;13.30;58.00;;;;;;5055439;28;20179;-70
2022/12/05 06:28:59;;;;;;;11.65;10.05;;;13.30;58.10;;;;;;5055501;28;20182;-69
2022/12/05 06:31:27;;;;;;;10.80;9.80;;;13.30;58.00;;;;;;5054908;28;20190;-69
2022/12/05 06:33:52;;;;;;;10.43;9.32;;;13.40;57.90;;;;;;5055148;28;20209;-68
2022/12/05 06:36:19;;;;;;;10.73;9.63;;;13.40;57.90;;;;;;5055247;28;20239;-68
2022/12/05 06:38:45;;;;;;;10.15;9.10;;;13.50;57.90;;;;;;5054552;28;20181;-69
2022/12/05 06:41:12;;;;;;;9.63;8.73;;;13.50;57.80;;;;;;5055475;28;20258;-68
2022/12/05 06:43:38;;;;;;;10.20;9.30;;;13.50;57.80;;;;;;5054737;28;20300;-69
2022/12/05 06:46:05;;;;;;;10.77;9.68;;;13.40;57.90;;;;;;5054665;28;20226;-69
2022/12/05 06:48:30;;;;;;;10.57;9.48;;;13.40;57.90;;;;;;5055064;28;20171;-69
2022/12/05 06:50:56;;;;;;;10.25;9.25;;;13.30;58.10;;;;;;5055039;28;20179;-69
2022/12/05 06:53:21;;;;;;;10.43;9.40;;;13.30;58.10;;;;;;5054467;28;20536;-69
2022/12/05 06:55:57;;;;;;;11.00;9.93;;;13.30;58.10;;;;;;5054907;28;20740;-68
2022/12/05 06:58:22;;;;;;;10.27;9.25;;;13.30;58.10;;;;;;5054407;28;20553;-69
2022/12/05 07:03:32;;;;;;;10.80;9.73;;;13.40;58.00;;;;;;5054646;28;20171;-69
2022/12/05 07:06:01;;;;;;;10.57;9.52;;;13.40;57.90;;;;;;5054355;28;20175;-69
2022/12/05 07:08:27;;;;;;;9.70;8.80;;;13.50;57.90;;;;;;5054881;28;20218;-69
2022/12/05 07:10:53;;;;;;;10.05;9.05;;;13.50;57.80;;;;;;5054661;28;20653;-69
2022/12/05 07:13:18;;;;;;;10.13;9.02;;;13.40;57.80;;;;;;5054041;28;20249;-68
2022/12/05 07:15:47;;;;;;;9.68;8.77;;;13.40;57.80;;;;;;5054341;28;20298;-68
2022/12/05 07:18:13;;;;;;;9.88;8.90;;;13.40;58.00;;;;;;5054252;28;20171;-68
2022/12/05 07:20:38;;;;;;;10.13;9.13;;;13.30;58.20;;;;;;5053487;28;20219;-68
2022/12/05 07:23:04;;;;;;;10.77;9.77;;;13.30;58.10;;;;;;5054618;28;20203;-68
2022/12/05 07:25:29;;;;;;;9.57;8.63;;;13.30;58.10;;;;;;5054492;28;20258;-70
2022/12/05 07:27:55;;;;;;;10.90;9.80;;;13.30;58.00;;;;;;5053431;28;20183;-69
2022/12/05 07:30:20;;;;;;;9.93;9.02;;;13.40;58.10;;;;;;5054405;28;20187;-70
2022/12/05 07:32:46;;;;;;;10.30;9.30;;;13.40;58.00;;;;;;5053946;28;20178;-69
2022/12/05 07:35:11;;;;;;;10.65;9.65;;;13.40;57.90;;;;;;5053685;28;20214;-69
2022/12/05 07:37:37;;;;;;;9.60;8.70;;;13.40;57.90;;;;;;5054178;28;20195;-69
2022/12/05 07:40:03;;;;;;;10.60;9.52;;;13.50;57.90;;;;;;5054326;28;20198;-69
2022/12/05 07:42:28;;;;;;;10.48;9.48;;;13.40;57.80;;;;;;5053544;28;20167;-69
2022/12/05 07:44:54;;;;;;;10.98;9.90;;;13.40;57.90;;;;;;5053835;28;20171;-69
2022/12/05 07:47:19;;;;;;;10.10;9.07;;;13.40;58.00;;;;;;5053257;28;20183;-69
2022/12/05 07:49:45;;;;;;;9.95;9.00;;;13.30;58.90;;;;;;5053911;28;20186;-70
2022/12/05 07:52:10;;;;;;;9.60;8.75;;;13.30;58.10;;;;;;5054101;28;20171;-70
2022/12/05 07:54:36;;;;;;;8.80;8.00;;;13.30;58.80;;;;;;5052153;28;20171;-69
2022/12/05 07:57:01;;;;;;;9.95;9.00;;;13.40;58.10;;;;;;5053899;28;20186;-69
2022/12/05 07:59:27;;;;;;;9.48;8.55;;;13.40;58.00;;;;;;5053772;28;20172;-69
2022/12/05 08:01:52;;;;;;;8.85;8.00;;;13.40;58.00;;;;;;5052925;28;20266;-69
2022/12/05 08:04:18;;;;;;;9.50;8.70;;;13.50;58.00;;;;;;5053955;28;20262;-70
2022/12/05 08:06:43;;;;;;;9.65;8.73;;;13.50;57.90;;;;;;5053631;28;20258;-69
2022/12/05 08:09:09;;;;;;;8.80;7.95;;;13.40;57.90;;;;;;5052956;28;20317;-70
2022/12/05 08:11:35;;;;;;;9.20;8.43;;;13.50;57.90;;;;;;5053302;28;20187;-69
2022/12/05 08:14:00;;;;;;;9.73;8.82;;;13.40;58.00;;;;;;5053693;28;20186;-69
2022/12/05 08:16:27;;;;;;;9.15;8.25;;;13.40;58.10;;;;;;5053365;28;20215;-69
2022/12/05 08:18:54;;;;;;;9.95;9.05;;;13.40;58.10;;;;;;5053058;28;20219;-69
2022/12/05 08:21:20;;;;;;;9.25;8.35;;;13.40;58.20;;;;;;5053520;28;20186;-68
2022/12/05 08:23:45;;;;;;;10.38;9.48;;;13.30;58.10;;;;;;5052542;28;20584;-69
2022/12/05 08:26:12;;;;;;;10.45;8.93;;;13.40;58.10;;;;;;5053466;28;20175;-70
2022/12/05 08:28:37;;;;;;;10.25;9.30;;;13.40;58.10;;;;;;5053149;28;20186;-70
2022/12/05 08:31:10;;;;;;;9.60;8.70;;;13.50;58.00;;;;;;5052554;28;20207;-69
2022/12/05 08:33:36;;;;;;;10.20;9.25;;;13.50;58.00;;;;;;5053138;28;20179;-69
2022/12/05 08:36:03;;;;;;;9.20;8.30;;;13.50;58.00;;;;;;5053286;28;20246;-68
2022/12/05 08:38:29;;;;;;;9.65;8.75;;;13.50;58.00;;;;;;5052502;28;20202;-69
2022/12/05 08:40:54;;;;;;;9.85;8.88;;;13.50;58.00;;;;;;5052801;28;20214;-69
2022/12/05 08:43:20;;;;;;;9.13;8.25;;;13.50;58.00;;;;;;5053036;28;20163;-69
2022/12/05 08:45:52;;;;;;;9.25;8.40;;;13.40;58.10;;;;;;5052043;28;20260;-69
2022/12/05 08:48:18;;;;;;;9.70;8.73;;;13.40;58.40;;;;;;5053199;28;20210;-69
2022/12/05 08:50:43;;;;;;;9.13;8.23;;;13.30;58.20;;;;;;5051979;28;20217;-70
2022/12/05 08:53:09;;;;;;;9.40;8.52;;;13.40;58.20;;;;;;5052963;28;20171;-69
2022/12/05 08:55:34;;;;;;;9.15;8.35;;;13.40;58.20;;;;;;5052846;28;20203;-70
2022/12/05 08:58:00;;;;;;;8.65;7.95;;;13.40;58.10;;;;;;5052246;28;20171;-68
2022/12/05 09:00:25;;;;;;;10.15;9.20;;;13.50;58.70;;;;;;5052867;28;20701;-69
2022/12/05 09:02:51;;;;;;;9.40;8.52;;;13.50;58.00;;;;;;5052796;28;20304;-69
2022/12/05 09:05:16;;;;;;;9.38;8.52;;;13.50;58.00;;;;;;5052165;28;20229;-69
2022/12/05 09:07:42;;;;;;;9.75;8.85;;;13.50;58.00;;;;;;5052586;28;20167;-70
2022/12/05 09:10:08;;;;;;;9.02;8.13;;;13.40;58.10;;;;;;5052684;28;20217;-70
2022/12/05 09:12:36;;;;;;;9.98;8.38;;;13.40;58.20;;;;;;5051617;28;20613;-69
2022/12/05 09:15:04;;;;;;;9.65;8.75;;;13.40;58.20;;;;;;5052596;28;20684;-69
2022/12/05 09:17:30;;;;;;;9.55;8.65;;;13.40;58.40;;;;;;5052706;28;20182;-69
2022/12/05 09:19:55;;;;;;;9.43;8.50;;;13.30;58.30;;;;;;5051829;28;20587;-69
2022/12/05 09:22:21;;;;;;;9.07;8.25;;;13.40;58.30;;;;;;5052754;28;20533;-69
2022/12/05 09:24:47;;;;;;;9.25;8.38;;;13.40;58.20;;;;;;5052333;28;20254;-70
2022/12/05 09:27:13;;;;;;;9.15;8.35;;;13.50;58.20;;;;;;5051848;28;20179;-70
2022/12/05 09:29:38;;;;;;;9.75;8.57;;;13.50;58.20;;;;;;5052235;28;20618;-70
2022/12/05 09:32:04;;;;;;;9.10;8.30;;;13.50;58.10;;;;;;5052736;28;20175;-69
2022/12/05 09:34:30;;;;;;;9.65;8.75;;;13.50;58.00;;;;;;5050608;28;20211;-69
2022/12/05 09:36:56;;;;;;;9.65;8.77;;;13.50;58.10;;;;;;5052210;28;20215;-68
2022/12/05 09:39:22;;;;;;;9.07;8.25;;;13.50;58.10;;;;;;5052575;28;20194;-69
2022/12/05 09:42:17;;;;;;;9.57;8.65;;;13.40;58.20;;;;;;5051454;28;20641;-69
2022/12/05 09:44:55;;;;;;;10.50;9.40;;;13.40;58.30;;;;;;5052373;28;20175;-69
2022/12/05 09:47:29;;;;;;;9.30;8.35;;;13.40;58.40;;;;;;5050764;28;20175;-70
2022/12/05 09:50:17;;;;;;;10.40;9.15;;;13.30;58.40;;;;;;5052195;28;20318;-70
2022/12/05 09:53:20;;;;;;;10.23;9.23;;;13.40;58.30;;;;;;5051134;28;20182;-70
2022/12/05 09:56:01;;;;;;;9.18;8.27;;;13.40;58.30;;;;;;5051302;28;20215;-68
2022/12/05 09:58:45;;;;;;;9.50;8.60;;;13.40;58.20;;;;;;5051057;28;20179;-68
2022/12/05 10:01:22;;;;;;;8.88;7.97;;;13.50;58.20;;;;;;5050560;28;20823;-69
2022/12/05 10:04:04;;;;;;;9.32;8.38;;;13.50;58.20;;;;;;5051101;28;20179;-69
2022/12/05 10:06:55;;;;;;;9.40;8.43;;;13.50;58.20;;;;;;5052373;28;20626;-68
2022/12/05 10:09:27;;;;;;;9.68;8.73;;;13.40;58.30;;;;;;5050248;28;20211;-69
2022/12/05 10:12:11;;;;;;;9.13;8.27;;;13.40;58.40;;;;;;5052063;28;20254;-69
2022/12/05 10:14:50;;;;;;;10.75;8.45;;;13.30;58.50;;;;;;5051948;28;20254;-68
2022/12/05 10:17:32;;;;;;;9.52;8.65;;;13.30;58.40;;;;;;5050615;28;20180;-68
2022/12/05 10:19:59;;;;;;;10.57;9.18;;;13.30;58.40;;;;;;5054639;28;20242;-68
2022/12/05 10:22:29;;;;;;;11.75;9.25;;;13.40;58.40;;;;;;5055165;28;20183;-69
2022/12/05 10:24:58;;;;;;;9.02;8.23;;;13.50;58.40;;;;;;5055397;28;20171;-69
2022/12/05 10:27:31;;;;;;;8.65;7.85;;;13.50;58.30;;;;;;5055509;28;20656;-70
2022/12/05 10:30:03;;;;;;;9.43;8.48;;;13.50;58.20;;;;;;5053870;28;20262;-69
2022/12/05 10:32:52;;;;;;;9.27;8.38;;;13.40;58.30;;;;;;5054604;28;20217;-68
2022/12/05 10:35:19;;;;;;;8.73;7.93;;;13.40;58.30;;;;;;5055559;28;20206;-68
2022/12/05 10:37:49;;;;;;;8.82;8.02;;;13.40;58.50;;;;;;5054468;28;20183;-68
2022/12/05 10:40:14;;;;;;;9.68;8.77;;;13.40;58.50;;;;;;5054236;28;20179;-69
2022/12/05 10:42:40;;;;;;;10.18;9.18;;;13.30;58.40;;;;;;5055273;28;20202;-68
2022/12/05 10:45:07;;;;;;;9.70;8.70;;;13.30;58.50;;;;;;5053652;28;20171;-68
2022/12/05 10:47:33;;;;;;;8.55;7.65;;;13.30;58.50;;;;;;5054950;28;20554;-69
2022/12/05 10:50:01;;;;;;;9.63;8.73;;;13.40;58.40;;;;;;5054109;28;20259;-69
2022/12/05 10:52:27;;;;;;;9.32;8.43;;;13.40;58.40;;;;;;5053510;28;20179;-69
2022/12/05 10:55:03;;;;;;;9.43;8.52;;;13.40;58.40;;;;;;5053510;28;20253;-68
2022/12/05 10:57:29;;;;;;;9.40;8.45;;;13.50;58.40;;;;;;5053213;28;20222;-68
2022/12/05 10:59:55;;;;;;;9.35;8.40;;;13.50;58.40;;;;;;5055033;28;20248;-68
2022/12/05 11:02:39;;;;;;;9.52;8.52;;;13.40;58.50;;;;;;5053853;28;20183;-69
2022/12/05 11:05:05;;;;;;;10.02;9.02;;;13.40;58.50;;;;;;5053089;28;20186;-68
2022/12/05 11:07:43;;;;;;;9.40;8.52;;;13.40;58.60;;;;;;5053578;28;20207;-69
2022/12/05 11:10:25;;;;;;;9.57;8.68;;;13.40;58.60;;;;;;5055051;28;20210;-68
2022/12/05 11:12:50;;;;;;;8.98;8.07;;;13.40;58.70;;;;;;5053783;28;20534;-68
2022/12/05 11:15:20;;;;;;;9.63;8.63;;;13.40;58.70;;;;;;5054621;28;20207;-68
2022/12/05 11:17:46;;;;;;;9.63;8.73;;;13.40;58.50;;;;;;5054405;28;20179;-67
2022/12/05 11:20:17;;;;;;;9.68;8.70;;;13.40;58.50;;;;;;5053733;28;20288;-68
2022/12/05 11:22:43;;;;;;;9.63;8.70;;;13.50;58.40;;;;;;5054363;28;20175;-68
2022/12/05 11:25:24;;;;;;;9.27;8.38;;;13.40;58.40;;;;;;5054378;28;20648;-69
2022/12/05 11:27:50;;;;;;;7.93;7.18;;;13.50;58.40;;;;;;5054238;28;20171;-69
2022/12/05 11:30:20;;;;;;;9.10;8.23;;;13.40;58.50;;;;;;5052000;28;20202;-69
2022/12/05 11:32:46;;;;;;;8.45;7.63;;;13.40;58.50;;;;;;5053556;28;20215;-68
2022/12/05 11:35:11;;;;;;;9.15;8.25;;;13.40;58.70;;;;;;5054278;28;20230;-68
2022/12/05 11:37:39;;;;;;;8.50;7.65;;;13.40;58.70;;;;;;5054148;28;20175;-68
2022/12/05 11:40:28;;;;;;;8.85;8.05;;;13.30;58.70;;;;;;5052411;28;20213;-68
2022/12/05 11:43:15;;;;;;;9.40;8.45;;;13.30;58.70;;;;;;5050366;28;20210;-68
2022/12/05 11:45:57;;;;;;;8.77;7.88;;;13.30;58.70;;;;;;5053068;28;20179;-69
2022/12/05 11:48:39;;;;;;;8.15;7.35;;;13.40;58.70;;;;;;5052244;28;20660;-69
2022/12/05 11:51:11;;;;;;;8.63;7.72;;;13.40;58.70;;;;;;5052853;28;20186;-69
2022/12/05 11:54:17;;;;;;;8.18;7.47;;;13.40;58.50;;;;;;5051975;28;20174;-68
2022/12/05 11:57:02;;;;;;;8.23;7.43;;;13.40;59.30;;;;;;5052334;28;20703;-69
2022/12/05 11:59:45;;;;;;;8.90;7.90;;;13.40;58.70;;;;;;5052596;28;20200;-68
2022/12/05 12:02:54;;;;;;;8.57;7.78;;;13.40;58.80;;;;;;5052117;28;20195;-69
2022/12/05 12:05:53;;;;;;;9.25;8.35;;;13.40;58.80;;;;;;5031703;28;20172;-68
2022/12/05 12:08:28;;;;;;;8.35;7.55;;;13.30;58.80;;;;;;5052042;28;20196;-69
2022/12/05 12:11:03;;;;;;;8.65;7.85;;;13.30;58.80;;;;;;5052333;28;20178;-68
2022/12/05 12:13:41;;;;;;;8.52;7.72;;;13.30;58.90;;;;;;5052343;28;20483;-68
2022/12/05 12:16:09;;;;;;;8.93;8.10;;;13.40;58.80;;;;;;5052728;28;20214;-68
2022/12/05 12:18:56;;;;;;;8.43;7.53;;;13.30;58.70;;;;;;5053021;28;20674;-68
2022/12/05 12:21:33;;;;;;;8.15;7.32;;;13.40;58.70;;;;;;5053595;28;20182;-68
2022/12/05 12:24:15;;;;;;;8.05;7.25;;;13.40;58.70;;;;;;5053623;28;20202;-69
2022/12/05 12:26:44;;;;;;;8.05;7.32;;;13.40;58.80;;;;;;5052042;28;20186;-69
2022/12/05 12:29:12;;;;;;;8.80;8.00;;;13.30;58.80;;;;;;5052516;28;20665;-69
2022/12/05 12:32:07;;;;;;;8.60;7.70;;;13.30;58.80;;;;;;5053110;28;20183;-69
2022/12/05 12:34:55;;;;;;;8.65;7.85;;;13.30;58.90;;;;;;5051973;28;20171;-68
2022/12/05 12:37:29;;;;;;;8.32;7.45;;;13.30;58.90;;;;;;5052669;28;20194;-68
2022/12/05 12:40:06;;;;;;;8.05;7.35;;;13.30;58.90;;;;;;5052916;28;20182;-68
2022/12/05 12:43:01;;;;;;;7.82;7.07;;;13.30;59.10;;;;;;5051919;28;20177;-69
2022/12/05 12:45:36;;;;;;;7.30;6.60;;;13.30;58.80;;;;;;5052316;28;20272;-69
2022/12/05 12:48:05;;;;;;;7.53;6.82;;;13.40;58.90;;;;;;5052011;28;20179;-69
2022/12/05 12:50:32;;;;;;;7.53;6.82;;;13.40;58.80;;;;;;5050974;28;20229;-69
2022/12/05 12:53:36;;;;;;;7.82;7.13;;;13.40;58.80;;;;;;5051876;28;20187;-68
2022/12/05 12:56:16;;;;;;;8.00;7.30;;;13.40;58.80;;;;;;5051972;28;20233;-68
2022/12/05 12:58:56;;;;;;;7.18;6.57;;;13.30;58.90;;;;;;5050886;28;20179;-68